sensor_id;sensor_type;location;lat;lon;timestamp;P1;durP1;ratioP1;P2;durP2;ratioP2
64799;SDS011;51233;51.982;4.594;2024-01-10T00:02:27;2.53;;;1.98;;
64799;SDS011;51233;51.982;4.594;2024-01-10T00:05:27;2.03;;;1.92;;
64799;SDS011;51233;51.982;4.594;2024-01-10T00:08:27;2.03;;;1.83;;
64799;SDS011;51233;51.982;4.594;2024-01-10T00:11:27;6.22;;;2.10;;
64799;SDS011;51233;51.982;4.594;2024-01-10T00:14:27;2.20;;;2.00;;
64799;SDS011;51233;51.982;4.594;2024-01-10T00:17:28;1.95;;;1.80;;
64799;SDS011;51233;51.982;4.594;2024-01-10T00:20:28;1.92;;;1.80;;
64799;SDS011;51233;51.982;4.594;2024-01-10T00:23:28;4.82;;;2.08;;
64799;SDS011;51233;51.982;4.594;2024-01-10T00:26:28;2.30;;;2.10;;
64799;SDS011;51233;51.982;4.594;2024-01-10T00:29:28;2.40;;;1.90;;
64799;SDS011;51233;51.982;4.594;2024-01-10T00:32:29;2.20;;;2.00;;
64799;SDS011;51233;51.982;4.594;2024-01-10T00:35:29;2.78;;;1.80;;
64799;SDS011;51233;51.982;4.594;2024-01-10T00:38:29;2.03;;;1.85;;
64799;SDS011;51233;51.982;4.594;2024-01-10T00:41:29;4.75;;;2.22;;
64799;SDS011;51233;51.982;4.594;2024-01-10T00:44:29;1.92;;;1.63;;
64799;SDS011;51233;51.982;4.594;2024-01-10T00:47:30;6.75;;;2.03;;
64799;SDS011;51233;51.982;4.594;2024-01-10T00:50:30;1.97;;;1.77;;
64799;SDS011;51233;51.982;4.594;2024-01-10T00:53:30;1.70;;;1.60;;
64799;SDS011;51233;51.982;4.594;2024-01-10T00:56:30;2.30;;;2.00;;
64799;SDS011;51233;51.982;4.594;2024-01-10T00:59:30;2.42;;;2.05;;
64799;SDS011;51233;51.982;4.594;2024-01-10T01:02:31;1.92;;;1.80;;
64799;SDS011;51233;51.982;4.594;2024-01-10T01:05:31;2.00;;;1.90;;
64799;SDS011;51233;51.982;4.594;2024-01-10T01:08:31;3.50;;;2.20;;
64799;SDS011;51233;51.982;4.594;2024-01-10T01:11:31;1.92;;;1.83;;
64799;SDS011;51233;51.982;4.594;2024-01-10T01:14:31;2.67;;;1.90;;
64799;SDS011;51233;51.982;4.594;2024-01-10T01:17:32;2.60;;;2.40;;
64799;SDS011;51233;51.982;4.594;2024-01-10T01:20:32;2.47;;;2.10;;
64799;SDS011;51233;51.982;4.594;2024-01-10T01:23:32;4.50;;;2.30;;
64799;SDS011;51233;51.982;4.594;2024-01-10T01:26:33;2.33;;;2.13;;
64799;SDS011;51233;51.982;4.594;2024-01-10T01:29:33;2.13;;;2.03;;
64799;SDS011;51233;51.982;4.594;2024-01-10T01:32:33;2.45;;;2.25;;
64799;SDS011;51233;51.982;4.594;2024-01-10T01:35:33;2.50;;;2.30;;
64799;SDS011;51233;51.982;4.594;2024-01-10T01:38:33;4.03;;;2.58;;
64799;SDS011;51233;51.982;4.594;2024-01-10T01:41:34;2.10;;;2.00;;
64799;SDS011;51233;51.982;4.594;2024-01-10T01:44:34;2.53;;;2.33;;
64799;SDS011;51233;51.982;4.594;2024-01-10T01:47:34;2.50;;;2.30;;
64799;SDS011;51233;51.982;4.594;2024-01-10T01:50:34;3.30;;;2.30;;
64799;SDS011;51233;51.982;4.594;2024-01-10T01:53:35;2.40;;;2.20;;
64799;SDS011;51233;51.982;4.594;2024-01-10T01:56:35;2.87;;;2.27;;
64799;SDS011;51233;51.982;4.594;2024-01-10T01:59:36;2.30;;;2.10;;
64799;SDS011;51233;51.982;4.594;2024-01-10T02:02:36;2.90;;;2.37;;
64799;SDS011;51233;51.982;4.594;2024-01-10T02:05:37;2.20;;;2.10;;
64799;SDS011;51233;51.982;4.594;2024-01-10T02:08:37;2.40;;;2.20;;
64799;SDS011;51233;51.982;4.594;2024-01-10T02:11:37;2.67;;;2.40;;
64799;SDS011;51233;51.982;4.594;2024-01-10T02:14:38;2.60;;;2.40;;
64799;SDS011;51233;51.982;4.594;2024-01-10T02:17:38;2.63;;;2.42;;
64799;SDS011;51233;51.982;4.594;2024-01-10T02:20:38;2.33;;;2.13;;
64799;SDS011;51233;51.982;4.594;2024-01-10T02:23:38;2.35;;;1.95;;
64799;SDS011;51233;51.982;4.594;2024-01-10T02:26:39;2.35;;;2.15;;
64799;SDS011;51233;51.982;4.594;2024-01-10T02:29:39;2.40;;;2.20;;
64799;SDS011;51233;51.982;4.594;2024-01-10T02:32:39;4.13;;;2.10;;
64799;SDS011;51233;51.982;4.594;2024-01-10T02:35:40;2.42;;;2.22;;
64799;SDS011;51233;51.982;4.594;2024-01-10T02:38:40;2.20;;;2.10;;
64799;SDS011;51233;51.982;4.594;2024-01-10T02:41:40;3.38;;;2.50;;
64799;SDS011;51233;51.982;4.594;2024-01-10T02:44:40;3.92;;;2.50;;
64799;SDS011;51233;51.982;4.594;2024-01-10T02:47:40;3.00;;;2.60;;
64799;SDS011;51233;51.982;4.594;2024-01-10T02:50:41;2.33;;;2.22;;
64799;SDS011;51233;51.982;4.594;2024-01-10T02:53:41;2.70;;;2.50;;
64799;SDS011;51233;51.982;4.594;2024-01-10T02:56:41;1.83;;;1.73;;
64799;SDS011;51233;51.982;4.594;2024-01-10T02:59:41;2.70;;;2.50;;
64799;SDS011;51233;51.982;4.594;2024-01-10T03:02:41;2.80;;;2.60;;
64799;SDS011;51233;51.982;4.594;2024-01-10T03:05:44;2.85;;;2.65;;
64799;SDS011;51233;51.982;4.594;2024-01-10T03:08:44;3.78;;;2.80;;
64799;SDS011;51233;51.982;4.594;2024-01-10T03:11:44;3.53;;;2.47;;
64799;SDS011;51233;51.982;4.594;2024-01-10T03:14:45;2.80;;;2.60;;
64799;SDS011;51233;51.982;4.594;2024-01-10T03:17:45;2.88;;;2.60;;
64799;SDS011;51233;51.982;4.594;2024-01-10T03:20:45;2.92;;;2.70;;
64799;SDS011;51233;51.982;4.594;2024-01-10T03:23:46;3.28;;;2.97;;
64799;SDS011;51233;51.982;4.594;2024-01-10T03:26:46;3.25;;;2.95;;
64799;SDS011;51233;51.982;4.594;2024-01-10T03:29:46;2.80;;;2.60;;
64799;SDS011;51233;51.982;4.594;2024-01-10T03:32:46;3.00;;;2.80;;
64799;SDS011;51233;51.982;4.594;2024-01-10T03:35:46;3.00;;;2.63;;
64799;SDS011;51233;51.982;4.594;2024-01-10T03:38:46;2.45;;;2.20;;
64799;SDS011;51233;51.982;4.594;2024-01-10T03:41:47;2.85;;;2.65;;
64799;SDS011;51233;51.982;4.594;2024-01-10T03:44:48;2.90;;;2.70;;
64799;SDS011;51233;51.982;4.594;2024-01-10T03:47:48;3.08;;;2.88;;
64799;SDS011;51233;51.982;4.594;2024-01-10T03:50:50;2.65;;;2.42;;
64799;SDS011;51233;51.982;4.594;2024-01-10T03:53:51;2.83;;;2.63;;
64799;SDS011;51233;51.982;4.594;2024-01-10T03:56:51;3.67;;;2.70;;
64799;SDS011;51233;51.982;4.594;2024-01-10T03:59:51;2.97;;;2.78;;
64799;SDS011;51233;51.982;4.594;2024-01-10T04:02:52;3.08;;;2.80;;
64799;SDS011;51233;51.982;4.594;2024-01-10T04:05:52;2.63;;;2.43;;
64799;SDS011;51233;51.982;4.594;2024-01-10T04:08:52;2.95;;;2.67;;
64799;SDS011;51233;51.982;4.594;2024-01-10T04:11:53;3.40;;;3.10;;
64799;SDS011;51233;51.982;4.594;2024-01-10T04:14:53;2.83;;;2.63;;
64799;SDS011;51233;51.982;4.594;2024-01-10T04:17:53;3.85;;;2.97;;
64799;SDS011;51233;51.982;4.594;2024-01-10T04:20:53;2.77;;;2.57;;
64799;SDS011;51233;51.982;4.594;2024-01-10T04:23:54;5.00;;;2.83;;
64799;SDS011;51233;51.982;4.594;2024-01-10T04:26:54;2.70;;;2.50;;
64799;SDS011;51233;51.982;4.594;2024-01-10T04:29:54;4.47;;;2.72;;
64799;SDS011;51233;51.982;4.594;2024-01-10T04:32:54;2.63;;;2.47;;
64799;SDS011;51233;51.982;4.594;2024-01-10T04:35:54;3.15;;;2.85;;
64799;SDS011;51233;51.982;4.594;2024-01-10T04:38:55;2.90;;;2.70;;
64799;SDS011;51233;51.982;4.594;2024-01-10T04:41:55;3.08;;;2.60;;
64799;SDS011;51233;51.982;4.594;2024-01-10T04:44:55;2.77;;;2.57;;
64799;SDS011;51233;51.982;4.594;2024-01-10T04:47:56;3.65;;;3.05;;
64799;SDS011;51233;51.982;4.594;2024-01-10T04:50:56;2.72;;;2.53;;
64799;SDS011;51233;51.982;4.594;2024-01-10T04:53:56;3.33;;;3.10;;
64799;SDS011;51233;51.982;4.594;2024-01-10T04:56:56;3.16;;;2.86;;
64799;SDS011;51233;51.982;4.594;2024-01-10T04:59:56;3.40;;;3.08;;
64799;SDS011;51233;51.982;4.594;2024-01-10T05:02:57;3.17;;;2.97;;
64799;SDS011;51233;51.982;4.594;2024-01-10T05:05:57;2.03;;;1.92;;
64799;SDS011;51233;51.982;4.594;2024-01-10T05:08:57;3.90;;;3.15;;
64799;SDS011;51233;51.982;4.594;2024-01-10T05:11:58;3.17;;;2.88;;
64799;SDS011;51233;51.982;4.594;2024-01-10T05:14:58;2.88;;;2.67;;
64799;SDS011;51233;51.982;4.594;2024-01-10T05:17:58;4.23;;;2.93;;
64799;SDS011;51233;51.982;4.594;2024-01-10T05:20:59;3.15;;;2.85;;
64799;SDS011;51233;51.982;4.594;2024-01-10T05:23:59;3.20;;;3.00;;
64799;SDS011;51233;51.982;4.594;2024-01-10T05:26:59;4.28;;;3.22;;
64799;SDS011;51233;51.982;4.594;2024-01-10T05:30:00;3.30;;;3.00;;
64799;SDS011;51233;51.982;4.594;2024-01-10T05:33:00;3.28;;;3.08;;
64799;SDS011;51233;51.982;4.594;2024-01-10T05:36:00;3.33;;;2.25;;
64799;SDS011;51233;51.982;4.594;2024-01-10T05:39:00;4.38;;;3.03;;
64799;SDS011;51233;51.982;4.594;2024-01-10T05:42:00;3.22;;;2.95;;
64799;SDS011;51233;51.982;4.594;2024-01-10T05:45:02;3.00;;;2.70;;
64799;SDS011;51233;51.982;4.594;2024-01-10T05:48:03;3.38;;;3.08;;
64799;SDS011;51233;51.982;4.594;2024-01-10T05:51:03;3.20;;;2.90;;
64799;SDS011;51233;51.982;4.594;2024-01-10T05:54:03;5.65;;;3.10;;
64799;SDS011;51233;51.982;4.594;2024-01-10T05:57:04;3.63;;;3.30;;
64799;SDS011;51233;51.982;4.594;2024-01-10T06:00:04;3.10;;;2.80;;
64799;SDS011;51233;51.982;4.594;2024-01-10T06:03:09;3.38;;;3.05;;
64799;SDS011;51233;51.982;4.594;2024-01-10T06:06:09;3.30;;;3.00;;
64799;SDS011;51233;51.982;4.594;2024-01-10T06:09:09;3.37;;;3.07;;
64799;SDS011;51233;51.982;4.594;2024-01-10T06:12:11;2.85;;;2.65;;
64799;SDS011;51233;51.982;4.594;2024-01-10T06:15:11;3.55;;;3.25;;
64799;SDS011;51233;51.982;4.594;2024-01-10T06:18:11;3.55;;;3.17;;
64799;SDS011;51233;51.982;4.594;2024-01-10T06:21:11;3.50;;;3.20;;
64799;SDS011;51233;51.982;4.594;2024-01-10T06:24:11;3.58;;;3.28;;
64799;SDS011;51233;51.982;4.594;2024-01-10T06:27:12;3.50;;;3.20;;
64799;SDS011;51233;51.982;4.594;2024-01-10T06:30:12;3.08;;;2.78;;
64799;SDS011;51233;51.982;4.594;2024-01-10T06:33:12;3.40;;;3.10;;
64799;SDS011;51233;51.982;4.594;2024-01-10T06:36:13;3.88;;;3.33;;
64799;SDS011;51233;51.982;4.594;2024-01-10T06:39:14;3.73;;;3.43;;
64799;SDS011;51233;51.982;4.594;2024-01-10T06:42:15;3.95;;;3.65;;
64799;SDS011;51233;51.982;4.594;2024-01-10T06:45:15;4.22;;;3.80;;
64799;SDS011;51233;51.982;4.594;2024-01-10T06:48:16;3.77;;;3.47;;
64799;SDS011;51233;51.982;4.594;2024-01-10T06:51:16;3.90;;;3.43;;
64799;SDS011;51233;51.982;4.594;2024-01-10T06:54:16;3.60;;;3.30;;
64799;SDS011;51233;51.982;4.594;2024-01-10T06:57:18;3.30;;;3.00;;
64799;SDS011;51233;51.982;4.594;2024-01-10T07:00:19;3.28;;;2.97;;
64799;SDS011;51233;51.982;4.594;2024-01-10T07:03:20;3.95;;;3.65;;
64799;SDS011;51233;51.982;4.594;2024-01-10T07:06:20;3.73;;;3.40;;
64799;SDS011;51233;51.982;4.594;2024-01-10T07:09:21;3.73;;;3.43;;
64799;SDS011;51233;51.982;4.594;2024-01-10T07:12:21;3.85;;;3.10;;
64799;SDS011;51233;51.982;4.594;2024-01-10T07:15:21;4.10;;;3.70;;
64799;SDS011;51233;51.982;4.594;2024-01-10T07:18:22;1.80;;;1.70;;
64799;SDS011;51233;51.982;4.594;2024-01-10T07:21:22;4.47;;;4.07;;
64799;SDS011;51233;51.982;4.594;2024-01-10T07:24:22;4.30;;;3.90;;
64799;SDS011;51233;51.982;4.594;2024-01-10T07:27:22;4.13;;;3.70;;
64799;SDS011;51233;51.982;4.594;2024-01-10T07:30:23;4.82;;;4.00;;
64799;SDS011;51233;51.982;4.594;2024-01-10T07:33:24;5.55;;;4.60;;
64799;SDS011;51233;51.982;4.594;2024-01-10T07:36:24;7.17;;;5.83;;
64799;SDS011;51233;51.982;4.594;2024-01-10T07:39:26;5.20;;;4.47;;
64799;SDS011;51233;51.982;4.594;2024-01-10T07:42:26;4.13;;;3.77;;
64799;SDS011;51233;51.982;4.594;2024-01-10T07:45:27;4.72;;;3.40;;
64799;SDS011;51233;51.982;4.594;2024-01-10T07:48:27;4.60;;;3.77;;
64799;SDS011;51233;51.982;4.594;2024-01-10T07:51:27;3.88;;;3.50;;
64799;SDS011;51233;51.982;4.594;2024-01-10T07:54:27;3.83;;;3.50;;
64799;SDS011;51233;51.982;4.594;2024-01-10T07:57:27;4.38;;;3.65;;
64799;SDS011;51233;51.982;4.594;2024-01-10T08:00:28;4.38;;;3.70;;
64799;SDS011;51233;51.982;4.594;2024-01-10T08:03:30;4.75;;;4.00;;
64799;SDS011;51233;51.982;4.594;2024-01-10T08:06:30;7.60;;;4.07;;
64799;SDS011;51233;51.982;4.594;2024-01-10T08:09:30;4.07;;;3.70;;
64799;SDS011;51233;51.982;4.594;2024-01-10T08:12:30;4.22;;;3.40;;
64799;SDS011;51233;51.982;4.594;2024-01-10T08:15:30;4.25;;;3.95;;
64799;SDS011;51233;51.982;4.594;2024-01-10T08:18:34;5.32;;;4.40;;
64799;SDS011;51233;51.982;4.594;2024-01-10T08:21:34;5.38;;;4.28;;
64799;SDS011;51233;51.982;4.594;2024-01-10T08:24:35;4.60;;;4.13;;
64799;SDS011;51233;51.982;4.594;2024-01-10T08:27:35;4.97;;;4.22;;
64799;SDS011;51233;51.982;4.594;2024-01-10T08:30:35;4.63;;;3.13;;
64799;SDS011;51233;51.982;4.594;2024-01-10T08:33:35;4.28;;;3.53;;
64799;SDS011;51233;51.982;4.594;2024-01-10T08:36:36;4.23;;;3.90;;
64799;SDS011;51233;51.982;4.594;2024-01-10T08:39:37;5.28;;;3.92;;
64799;SDS011;51233;51.982;4.594;2024-01-10T08:42:37;4.38;;;3.70;;
64799;SDS011;51233;51.982;4.594;2024-01-10T08:45:38;3.30;;;2.88;;
64799;SDS011;51233;51.982;4.594;2024-01-10T08:48:38;3.65;;;3.25;;
64799;SDS011;51233;51.982;4.594;2024-01-10T08:51:38;3.53;;;3.22;;
64799;SDS011;51233;51.982;4.594;2024-01-10T08:54:40;4.00;;;3.47;;
64799;SDS011;51233;51.982;4.594;2024-01-10T08:57:41;4.70;;;4.20;;
64799;SDS011;51233;51.982;4.594;2024-01-10T09:00:41;4.55;;;3.90;;
64799;SDS011;51233;51.982;4.594;2024-01-10T09:03:41;4.40;;;3.73;;
64799;SDS011;51233;51.982;4.594;2024-01-10T09:06:41;3.83;;;3.50;;
64799;SDS011;51233;51.982;4.594;2024-01-10T09:09:41;2.80;;;2.60;;
64799;SDS011;51233;51.982;4.594;2024-01-10T09:12:42;4.50;;;4.00;;
64799;SDS011;51233;51.982;4.594;2024-01-10T09:15:45;4.47;;;4.07;;
64799;SDS011;51233;51.982;4.594;2024-01-10T09:18:46;6.00;;;3.65;;
64799;SDS011;51233;51.982;4.594;2024-01-10T09:21:46;4.70;;;3.45;;
64799;SDS011;51233;51.982;4.594;2024-01-10T09:24:47;3.90;;;3.47;;
64799;SDS011;51233;51.982;4.594;2024-01-10T09:27:47;4.23;;;3.87;;
64799;SDS011;51233;51.982;4.594;2024-01-10T09:30:47;4.10;;;3.43;;
64799;SDS011;51233;51.982;4.594;2024-01-10T09:33:47;4.90;;;3.95;;
64799;SDS011;51233;51.982;4.594;2024-01-10T09:36:47;5.03;;;4.00;;
64799;SDS011;51233;51.982;4.594;2024-01-10T09:39:48;4.53;;;3.55;;
64799;SDS011;51233;51.982;4.594;2024-01-10T09:42:51;5.93;;;3.92;;
64799;SDS011;51233;51.982;4.594;2024-01-10T09:45:51;4.20;;;3.70;;
64799;SDS011;51233;51.982;4.594;2024-01-10T09:48:53;6.00;;;3.60;;
64799;SDS011;51233;51.982;4.594;2024-01-10T09:51:53;5.72;;;4.40;;
64799;SDS011;51233;51.982;4.594;2024-01-10T09:54:57;4.70;;;4.05;;
64799;SDS011;51233;51.982;4.594;2024-01-10T09:57:58;4.53;;;4.07;;
64799;SDS011;51233;51.982;4.594;2024-01-10T10:00:58;4.85;;;4.40;;
64799;SDS011;51233;51.982;4.594;2024-01-10T10:03:59;4.38;;;3.50;;
64799;SDS011;51233;51.982;4.594;2024-01-10T10:07:02;4.47;;;4.07;;
64799;SDS011;51233;51.982;4.594;2024-01-10T10:10:02;4.30;;;3.90;;
64799;SDS011;51233;51.982;4.594;2024-01-10T10:13:02;4.85;;;3.65;;
64799;SDS011;51233;51.982;4.594;2024-01-10T10:16:03;8.15;;;4.55;;
64799;SDS011;51233;51.982;4.594;2024-01-10T10:19:03;4.60;;;4.03;;
64799;SDS011;51233;51.982;4.594;2024-01-10T10:22:08;5.07;;;4.00;;
64799;SDS011;51233;51.982;4.594;2024-01-10T10:25:09;4.93;;;4.03;;
64799;SDS011;51233;51.982;4.594;2024-01-10T10:28:09;4.40;;;3.92;;
64799;SDS011;51233;51.982;4.594;2024-01-10T10:31:09;4.30;;;3.90;;
64799;SDS011;51233;51.982;4.594;2024-01-10T10:34:10;4.07;;;3.75;;
64799;SDS011;51233;51.982;4.594;2024-01-10T10:37:10;5.47;;;3.95;;
64799;SDS011;51233;51.982;4.594;2024-01-10T10:40:10;7.70;;;3.78;;
64799;SDS011;51233;51.982;4.594;2024-01-10T10:43:12;4.87;;;4.37;;
64799;SDS011;51233;51.982;4.594;2024-01-10T10:46:14;4.95;;;3.97;;
64799;SDS011;51233;51.982;4.594;2024-01-10T10:49:14;4.43;;;2.90;;
64799;SDS011;51233;51.982;4.594;2024-01-10T10:52:17;6.78;;;4.50;;
64799;SDS011;51233;51.982;4.594;2024-01-10T10:58:19;8.10;;;5.03;;
64799;SDS011;51233;51.982;4.594;2024-01-10T11:01:20;5.38;;;4.55;;
64799;SDS011;51233;51.982;4.594;2024-01-10T11:04:21;6.32;;;4.45;;
64799;SDS011;51233;51.982;4.594;2024-01-10T11:07:22;9.07;;;5.00;;
64799;SDS011;51233;51.982;4.594;2024-01-10T11:10:30;6.00;;;5.40;;
64799;SDS011;51233;51.982;4.594;2024-01-10T11:13:37;6.13;;;5.18;;
64799;SDS011;51233;51.982;4.594;2024-01-10T11:19:53;6.72;;;5.10;;
64799;SDS011;51233;51.982;4.594;2024-01-10T11:26:02;4.88;;;4.38;;
64799;SDS011;51233;51.982;4.594;2024-01-10T11:29:04;5.80;;;4.43;;
64799;SDS011;51233;51.982;4.594;2024-01-10T11:32:04;5.45;;;4.85;;
64799;SDS011;51233;51.982;4.594;2024-01-10T11:35:05;6.57;;;5.03;;
64799;SDS011;51233;51.982;4.594;2024-01-10T11:38:11;4.25;;;3.85;;
64799;SDS011;51233;51.982;4.594;2024-01-10T11:41:11;4.97;;;4.53;;
64799;SDS011;51233;51.982;4.594;2024-01-10T11:47:19;4.07;;;3.50;;
64799;SDS011;51233;51.982;4.594;2024-01-10T11:50:19;6.03;;;4.85;;
64799;SDS011;51233;51.982;4.594;2024-01-10T11:53:37;6.47;;;4.85;;
64799;SDS011;51233;51.982;4.594;2024-01-10T11:56:40;3.50;;;3.20;;
64799;SDS011;51233;51.982;4.594;2024-01-10T11:59:41;5.10;;;4.60;;
64799;SDS011;51233;51.982;4.594;2024-01-10T12:02:41;4.63;;;3.80;;
64799;SDS011;51233;51.982;4.594;2024-01-10T12:05:42;4.57;;;4.17;;
64799;SDS011;51233;51.982;4.594;2024-01-10T12:08:43;4.97;;;4.22;;
64799;SDS011;51233;51.982;4.594;2024-01-10T12:11:44;4.65;;;3.67;;
64799;SDS011;51233;51.982;4.594;2024-01-10T12:14:44;5.97;;;5.37;;
64799;SDS011;51233;51.982;4.594;2024-01-10T12:17:44;7.53;;;4.83;;
64799;SDS011;51233;51.982;4.594;2024-01-10T12:20:44;7.60;;;5.47;;
64799;SDS011;51233;51.982;4.594;2024-01-10T12:23:45;6.83;;;4.70;;
64799;SDS011;51233;51.982;4.594;2024-01-10T12:26:47;8.40;;;5.03;;
64799;SDS011;51233;51.982;4.594;2024-01-10T12:29:48;5.17;;;4.50;;
64799;SDS011;51233;51.982;4.594;2024-01-10T12:32:50;6.20;;;4.95;;
64799;SDS011;51233;51.982;4.594;2024-01-10T12:36:11;5.38;;;4.88;;
64799;SDS011;51233;51.982;4.594;2024-01-10T12:39:11;6.13;;;5.20;;
64799;SDS011;51233;51.982;4.594;2024-01-10T12:42:11;4.80;;;4.33;;
64799;SDS011;51233;51.982;4.594;2024-01-10T12:45:21;4.37;;;3.97;;
64799;SDS011;51233;51.982;4.594;2024-01-10T12:48:21;5.60;;;4.50;;
64799;SDS011;51233;51.982;4.594;2024-01-10T12:51:22;5.87;;;5.10;;
64799;SDS011;51233;51.982;4.594;2024-01-10T12:54:22;5.50;;;4.73;;
64799;SDS011;51233;51.982;4.594;2024-01-10T12:57:22;4.87;;;4.30;;
64799;SDS011;51233;51.982;4.594;2024-01-10T13:00:23;5.20;;;4.70;;
64799;SDS011;51233;51.982;4.594;2024-01-10T13:03:23;5.32;;;4.80;;
64799;SDS011;51233;51.982;4.594;2024-01-10T13:06:24;5.07;;;4.57;;
64799;SDS011;51233;51.982;4.594;2024-01-10T13:09:24;4.53;;;4.13;;
64799;SDS011;51233;51.982;4.594;2024-01-10T13:12:25;5.77;;;4.93;;
64799;SDS011;51233;51.982;4.594;2024-01-10T13:15:25;6.38;;;5.50;;
64799;SDS011;51233;51.982;4.594;2024-01-10T13:18:25;5.60;;;4.20;;
64799;SDS011;51233;51.982;4.594;2024-01-10T13:21:28;8.75;;;5.03;;
64799;SDS011;51233;51.982;4.594;2024-01-10T13:24:28;4.57;;;4.13;;
64799;SDS011;51233;51.982;4.594;2024-01-10T13:27:29;5.10;;;4.60;;
64799;SDS011;51233;51.982;4.594;2024-01-10T13:30:29;5.78;;;5.28;;
64799;SDS011;51233;51.982;4.594;2024-01-10T13:33:30;4.60;;;4.20;;
64799;SDS011;51233;51.982;4.594;2024-01-10T13:36:30;6.80;;;5.53;;
64799;SDS011;51233;51.982;4.594;2024-01-10T13:39:30;4.53;;;4.03;;
64799;SDS011;51233;51.982;4.594;2024-01-10T13:42:31;4.82;;;3.50;;
64799;SDS011;51233;51.982;4.594;2024-01-10T13:45:31;3.97;;;3.57;;
64799;SDS011;51233;51.982;4.594;2024-01-10T13:48:31;7.07;;;5.05;;
64799;SDS011;51233;51.982;4.594;2024-01-10T13:51:31;4.43;;;4.03;;
64799;SDS011;51233;51.982;4.594;2024-01-10T13:54:32;4.67;;;4.23;;
64799;SDS011;51233;51.982;4.594;2024-01-10T13:57:32;5.63;;;4.30;;
64799;SDS011;51233;51.982;4.594;2024-01-10T14:00:32;5.10;;;4.60;;
64799;SDS011;51233;51.982;4.594;2024-01-10T14:03:32;9.15;;;5.32;;
64799;SDS011;51233;51.982;4.594;2024-01-10T14:06:32;3.90;;;3.28;;
64799;SDS011;51233;51.982;4.594;2024-01-10T14:09:33;5.63;;;5.00;;
64799;SDS011;51233;51.982;4.594;2024-01-10T14:12:34;4.45;;;4.00;;
64799;SDS011;51233;51.982;4.594;2024-01-10T14:15:35;5.13;;;4.07;;
64799;SDS011;51233;51.982;4.594;2024-01-10T14:18:35;7.03;;;5.10;;
64799;SDS011;51233;51.982;4.594;2024-01-10T14:21:35;4.90;;;4.35;;
64799;SDS011;51233;51.982;4.594;2024-01-10T14:24:35;5.95;;;5.40;;
64799;SDS011;51233;51.982;4.594;2024-01-10T14:27:35;5.95;;;5.43;;
64799;SDS011;51233;51.982;4.594;2024-01-10T14:30:38;10.55;;;5.60;;
64799;SDS011;51233;51.982;4.594;2024-01-10T14:33:38;7.30;;;5.30;;
64799;SDS011;51233;51.982;4.594;2024-01-10T14:36:38;6.67;;;4.67;;
64799;SDS011;51233;51.982;4.594;2024-01-10T14:39:39;9.37;;;4.90;;
64799;SDS011;51233;51.982;4.594;2024-01-10T14:42:40;5.18;;;4.68;;
64799;SDS011;51233;51.982;4.594;2024-01-10T14:45:40;10.32;;;5.15;;
64799;SDS011;51233;51.982;4.594;2024-01-10T14:48:40;7.10;;;5.67;;
64799;SDS011;51233;51.982;4.594;2024-01-10T14:51:40;7.55;;;5.47;;
64799;SDS011;51233;51.982;4.594;2024-01-10T14:54:40;5.93;;;4.90;;
64799;SDS011;51233;51.982;4.594;2024-01-10T14:57:41;7.00;;;4.97;;
64799;SDS011;51233;51.982;4.594;2024-01-10T15:00:41;7.10;;;4.90;;
64799;SDS011;51233;51.982;4.594;2024-01-10T15:03:43;6.32;;;5.30;;
64799;SDS011;51233;51.982;4.594;2024-01-10T15:06:44;6.75;;;5.10;;
64799;SDS011;51233;51.982;4.594;2024-01-10T15:09:45;6.10;;;4.28;;
64799;SDS011;51233;51.982;4.594;2024-01-10T15:12:45;7.40;;;5.05;;
64799;SDS011;51233;51.982;4.594;2024-01-10T15:15:45;6.93;;;5.05;;
64799;SDS011;51233;51.982;4.594;2024-01-10T15:18:45;5.40;;;4.82;;
64799;SDS011;51233;51.982;4.594;2024-01-10T15:21:46;5.40;;;4.90;;
64799;SDS011;51233;51.982;4.594;2024-01-10T15:24:46;6.78;;;5.07;;
64799;SDS011;51233;51.982;4.594;2024-01-10T15:27:47;5.47;;;4.27;;
64799;SDS011;51233;51.982;4.594;2024-01-10T15:30:48;6.03;;;4.78;;
64799;SDS011;51233;51.982;4.594;2024-01-10T15:33:48;6.07;;;4.40;;
64799;SDS011;51233;51.982;4.594;2024-01-10T15:36:49;6.27;;;4.80;;
64799;SDS011;51233;51.982;4.594;2024-01-10T15:39:49;5.40;;;4.90;;
64799;SDS011;51233;51.982;4.594;2024-01-10T15:42:50;5.00;;;4.57;;
64799;SDS011;51233;51.982;4.594;2024-01-10T15:45:50;8.63;;;5.13;;
64799;SDS011;51233;51.982;4.594;2024-01-10T15:48:50;7.38;;;4.82;;
64799;SDS011;51233;51.982;4.594;2024-01-10T15:51:50;6.45;;;4.70;;
64799;SDS011;51233;51.982;4.594;2024-01-10T15:54:50;6.50;;;5.30;;
64799;SDS011;51233;51.982;4.594;2024-01-10T15:57:53;6.57;;;4.60;;
64799;SDS011;51233;51.982;4.594;2024-01-10T16:00:54;5.80;;;5.15;;
64799;SDS011;51233;51.982;4.594;2024-01-10T16:03:54;4.20;;;3.80;;
64799;SDS011;51233;51.982;4.594;2024-01-10T16:06:54;6.15;;;5.38;;
64799;SDS011;51233;51.982;4.594;2024-01-10T16:09:54;6.97;;;5.82;;
64799;SDS011;51233;51.982;4.594;2024-01-10T16:12:55;6.27;;;5.37;;
64799;SDS011;51233;51.982;4.594;2024-01-10T16:15:55;6.53;;;5.47;;
64799;SDS011;51233;51.982;4.594;2024-01-10T16:18:56;4.90;;;3.88;;
64799;SDS011;51233;51.982;4.594;2024-01-10T16:21:56;5.33;;;4.80;;
64799;SDS011;51233;51.982;4.594;2024-01-10T16:24:56;5.07;;;4.57;;
64799;SDS011;51233;51.982;4.594;2024-01-10T16:27:56;6.13;;;4.32;;
64799;SDS011;51233;51.982;4.594;2024-01-10T16:30:56;4.45;;;4.05;;
64799;SDS011;51233;51.982;4.594;2024-01-10T16:33:56;6.60;;;4.70;;
64799;SDS011;51233;51.982;4.594;2024-01-10T16:36:57;5.55;;;5.05;;
64799;SDS011;51233;51.982;4.594;2024-01-10T16:39:57;5.53;;;5.03;;
64799;SDS011;51233;51.982;4.594;2024-01-10T16:42:57;5.82;;;5.18;;
64799;SDS011;51233;51.982;4.594;2024-01-10T16:45:57;5.25;;;4.78;;
64799;SDS011;51233;51.982;4.594;2024-01-10T16:48:57;6.63;;;5.97;;
64799;SDS011;51233;51.982;4.594;2024-01-10T16:51:58;6.78;;;6.05;;
64799;SDS011;51233;51.982;4.594;2024-01-10T16:54:58;6.70;;;5.80;;
64799;SDS011;51233;51.982;4.594;2024-01-10T16:57:58;6.50;;;5.90;;
64799;SDS011;51233;51.982;4.594;2024-01-10T17:01:00;6.93;;;6.25;;
64799;SDS011;51233;51.982;4.594;2024-01-10T17:04:01;8.00;;;6.50;;
64799;SDS011;51233;51.982;4.594;2024-01-10T17:07:01;7.65;;;6.95;;
64799;SDS011;51233;51.982;4.594;2024-01-10T17:10:01;8.07;;;6.95;;
64799;SDS011;51233;51.982;4.594;2024-01-10T17:13:03;7.47;;;6.65;;
64799;SDS011;51233;51.982;4.594;2024-01-10T17:16:04;8.55;;;6.70;;
64799;SDS011;51233;51.982;4.594;2024-01-10T17:19:04;8.98;;;6.90;;
64799;SDS011;51233;51.982;4.594;2024-01-10T17:22:05;7.53;;;6.17;;
64799;SDS011;51233;51.982;4.594;2024-01-10T17:25:06;6.88;;;5.93;;
64799;SDS011;51233;51.982;4.594;2024-01-10T17:28:08;6.68;;;6.00;;
64799;SDS011;51233;51.982;4.594;2024-01-10T17:31:09;9.05;;;6.65;;
64799;SDS011;51233;51.982;4.594;2024-01-10T17:34:09;9.75;;;6.63;;
64799;SDS011;51233;51.982;4.594;2024-01-10T17:37:10;7.10;;;6.28;;
64799;SDS011;51233;51.982;4.594;2024-01-10T17:40:10;7.83;;;6.87;;
64799;SDS011;51233;51.982;4.594;2024-01-10T17:43:10;7.13;;;6.38;;
64799;SDS011;51233;51.982;4.594;2024-01-10T17:46:11;7.30;;;6.55;;
64799;SDS011;51233;51.982;4.594;2024-01-10T17:49:11;8.50;;;6.68;;
64799;SDS011;51233;51.982;4.594;2024-01-10T17:52:11;7.07;;;6.35;;
64799;SDS011;51233;51.982;4.594;2024-01-10T17:55:11;8.20;;;6.83;;
64799;SDS011;51233;51.982;4.594;2024-01-10T17:58:12;9.15;;;8.30;;
64799;SDS011;51233;51.982;4.594;2024-01-10T18:01:12;10.38;;;9.38;;
64799;SDS011;51233;51.982;4.594;2024-01-10T18:04:12;11.70;;;7.65;;
64799;SDS011;51233;51.982;4.594;2024-01-10T18:07:12;7.60;;;6.83;;
64799;SDS011;51233;51.982;4.594;2024-01-10T18:10:12;9.30;;;6.38;;
64799;SDS011;51233;51.982;4.594;2024-01-10T18:13:13;10.68;;;6.95;;
64799;SDS011;51233;51.982;4.594;2024-01-10T18:16:13;9.34;;;7.06;;
64799;SDS011;51233;51.982;4.594;2024-01-10T18:19:13;6.95;;;5.90;;
64799;SDS011;51233;51.982;4.594;2024-01-10T18:22:14;6.95;;;6.07;;